Airfield :
LOGIN :

Register | Disclaimer

   EN    FR    IT 

 










Legend :    VFR   Marginal VFR   IFR   Intensive IFR   Very Intensive IFR
Visi :
Ceiling :
>= 8 km
>= 3000ft
5 to 8 km
1000 to 3000 ft
1500m to 5 km
500 to 1000 ft
800 to 1500m
200 to 500 ft
< 800m
< 200 ft
Symbols :   Thunderstorms  Fog  Heavy snow  Heavy precipitations  Wind > 20 kt
SIGMETs :     Misc.  Thunderstorms  Icing  Turbulence  Mountain Waves  Volcanic Ashes






- Airport Elevation : 1260 ft
- IATA code : LDE


LFBT - Tarbes / Ossun

CURRENT METAR :
  • 271130Z AUTO 27010KT 240V310 5000 -DZ BR BKN008 OVC013 14/13 Q1016 NOSIG

EXPIRED METARs :
  • 271100Z AUTO 27010KT 5000 -DZ BR BKN009 BKN016 BKN031 14/13 Q1016 NOSIG
  • 271030Z AUTO 29010KT 8000 -DZ SCT008 BKN013 BKN029 13/12 Q1016 TEMPO 4000 -RA BKN007
  • 271000Z AUTO 29009KT 260V320 6000 -RA SCT008 BKN012 OVC021 13/12 Q1016 TEMPO 4000 -RA BKN007
  • 270930Z AUTO 28007KT 250V320 4600 -RA BR FEW008 OVC018 13/12 Q1016 TEMPO BKN007
  • 270900Z AUTO 28007G18KT 250V340 4900 2400 RA BR FEW007 BKN012 BKN021 13/11 Q1016 TEMPO NSW BKN007

TAF TAF LFBT
Valid from the 27 at 12:00 until the 28 at 12:00 UTC


271100Z 2712/2812 26008KT 9999 SCT010 BKN020
TEMPO 2712/2718 4000 -RADZ BKN008 OVC020
TEMPO 2721/2804 3000 RA OVC007
TEMPO 2801/2812 27018G28KT
TEMPO 2804/2812 4000 SHRA BKN012TCU



MET'MAP, your aeronautical weather chart ! - Copyright ORBIFLY December 2007 - Disclaimer

ORBIFLY MET'MAP TEAM :

Programming & Development : Alexandra Zaïnal
Original concept : Baudouin d'Aumeries
Technical & hardware support : Manuel Goepfert
Assistance : Marc-Olivier Méhu




SOURCES & CREDITS :

   NOAA